Jaru, Brazil
Current Conditions -  °F | °C
As of 7:00 PM on Thursday 18 Dec 2014 (Local Time) from SBGM Reporting Station
Clear Clear  
Wind Chill: 81°   Ceiling: Unl
Heat Index: 86°   Visibility: 6mi
Dew Point: 75°   Wind: 3mph
Humidity: 84%   Direction: 240°WSW
Pressure: 29.74"   Gusts: NA
Location:  10.43°S, 62.45°W
Report Text: SBGM 182300Z 24003KT CAVOK 27/24 Q1007
Loading
Personal Weather Stations






























Interactive Weather Map New forecast layout! Learn more

10-Day Weather Forecast

Advertisements
Track Severe Weather on mobile